Time;durP1;ratioP1;P1;durP2;ratioP2;P2;SDS_P1;SDS_P2;PMS_P1;PMS_P2;Temp;Humidity;BMP_temperature;BMP_pressure;BME280_temperature;BME280_humidity;BME280_pressure;Samples;Min_cycle;Max_cycle;Signal;HPM_P1;HPM_P2
2022/10/31 00:02:18;;;;;;;;;;;;;;;14.35;77.67;101094.25;5302920;32;34540;-71
2022/10/31 00:05:20;;;;;;;;;;;;;;;14.96;76.02;101088.03;5321427;32;34836;-71
2022/10/31 00:08:22;;;;;;;;;;;;;;;14.39;77.02;101091.47;5305623;32;34575;-73
2022/10/31 00:11:24;;;;;;;;;;;;;;;15.46;73.19;101092.75;5309670;32;35258;-74
2022/10/31 00:14:25;;;;;;;;;;;;;;;15.52;72.26;101087.16;5316754;32;35056;-72
2022/10/31 00:17:27;;;;;;;;;;;;;;;13.80;80.67;101093.94;5303153;32;35251;-63
2022/10/31 00:20:29;;;;;;;;;;;;;;;14.01;80.08;101094.84;5320761;32;34113;-65
2022/10/31 00:23:31;;;;;;;;;;;;;;;14.46;79.16;101087.63;5303625;33;34284;-74
2022/10/31 00:26:33;;;;;;;;;;;;;;;15.29;74.28;101082.94;5295693;32;34340;-72
2022/10/31 00:29:34;;;;;;;;;;;;;;;14.95;75.98;101085.47;5303717;32;35264;-73
2022/10/31 00:32:36;;;;;;;;;;;;;;;15.64;72.16;101080.41;5308900;33;34123;-73
2022/10/31 00:35:38;;;;;;;;;;;;;;;15.15;74.32;101082.75;5313605;32;35199;-73
2022/10/31 00:38:40;;;;;;;;;;;;;;;15.16;74.93;101079.16;5300305;32;44922;-73
2022/10/31 00:41:42;;;;;;;;;;;;;;;15.17;75.11;101075.59;5319443;32;34500;-64
2022/10/31 00:44:44;;;;;;;;;;;;;;;14.72;77.97;101083.88;5304082;33;34753;-64
2022/10/31 00:47:46;;;;;;;;;;;;;;;15.05;75.62;101077.00;5321512;32;34762;-64
2022/10/31 00:50:47;;;;;;;;;;;;;;;14.50;77.10;101083.97;5301633;32;34921;-75
2022/10/31 00:53:49;;;;;;;;;;;;;;;14.14;79.31;101083.75;5308467;32;34727;-64
2022/10/31 00:56:51;;;;;;;;;;;;;;;14.49;78.08;101075.19;5315982;32;35062;-64
2022/10/31 00:59:53;;;;;;;;;;;;;;;14.23;80.33;101072.75;5304978;33;34711;-73
2022/10/31 01:02:55;;;;;;;;;;;;;;;13.78;82.27;101081.72;5319756;32;35647;-71
2022/10/31 01:05:58;;;;;;;;;;;;;;;14.12;82.69;101090.87;5302256;32;35044;-64
2022/10/31 01:08:59;;;;;;;;;;;;;;;14.37;81.17;101073.03;5320837;32;34312;-64
2022/10/31 01:12:01;;;;;;;;;;;;;;;14.58;79.13;101073.91;5302503;32;34280;-73
2022/10/31 01:15:03;;;;;;;;;;;;;;;14.53;79.17;101068.81;5305357;32;35001;-71
2022/10/31 01:18:05;;;;;;;;;;;;;;;13.86;82.13;101077.00;5319118;32;35786;-64
2022/10/31 01:21:08;;;;;;;;;;;;;;;15.23;76.40;101067.34;5301926;32;36822;-74
2022/10/31 01:24:10;;;;;;;;;;;;;;;15.54;72.94;101057.94;5320664;33;44706;-74
2022/10/31 01:27:12;;;;;;;;;;;;;;;14.97;75.59;101063.28;5280970;32;35141;-63
2022/10/31 01:30:13;;;;;;;;;;;;;;;14.36;80.62;101071.28;5319848;32;35180;-74
2022/10/31 01:33:15;;;;;;;;;;;;;;;13.91;82.08;101074.13;5304188;32;35047;-63
2022/10/31 01:36:28;;;;;;;;;;;;;;;14.06;81.23;101060.28;5300706;32;35371;-64
2022/10/31 01:39:30;;;;;;;;;;;;;;;14.29;81.23;101059.28;5318221;32;37227;-63
2022/10/31 01:42:32;;;;;;;;;;;;;;;15.43;73.98;101054.00;5301850;32;34265;-73
2022/10/31 01:45:33;;;;;;;;;;;;;;;14.98;74.37;101045.59;5320137;32;34945;-63
2022/10/31 01:48:35;;;;;;;;;;;;;;;14.47;77.48;101050.56;5302540;33;35376;-64
2022/10/31 01:51:38;;;;;;;;;;;;;;;15.13;74.62;101040.47;5316999;32;36199;-63
2022/10/31 01:54:41;;;;;;;;;;;;;;;14.59;75.48;101051.81;5304492;33;46675;-63
2022/10/31 01:57:44;;;;;;;;;;;;;;;14.93;75.55;101053.75;5289096;33;34696;-73
2022/10/31 02:00:46;;;;;;;;;;;;;;;15.22;73.32;101047.09;5319495;33;34408;-63
2022/10/31 02:03:48;;;;;;;;;;;;;;;14.81;75.59;101054.31;5302739;33;35133;-62
2022/10/31 02:06:58;;;;;;;;;;;;;;;13.76;80.56;101060.66;5319897;32;35052;-73
2022/10/31 02:10:00;;;;;;;;;;;;;;;14.81;76.73;101056.97;5300020;32;34653;-63
2022/10/31 02:13:03;;;;;;;;;;;;;;;14.93;75.01;101051.09;5313624;33;34267;-63
2022/10/31 02:16:05;;;;;;;;;;;;;;;14.17;78.87;101046.59;5310581;32;34275;-72
2022/10/31 02:19:07;;;;;;;;;;;;;;;14.79;75.30;101050.91;5304423;33;34355;-63
2022/10/31 02:22:27;;;;;;;;;;;;;;;14.59;75.45;101057.09;5317267;33;44984;-72
2022/10/31 02:25:41;;;;;;;;;;;;;;;14.55;76.23;101052.84;5284900;32;35013;-64
2022/10/31 02:28:46;;;;;;;;;;;;;;;14.68;75.38;101046.09;5312725;32;45074;-63
2022/10/31 02:31:50;;;;;;;;;;;;;;;14.42;76.18;101033.16;5302853;33;35401;-70
2022/10/31 02:34:56;;;;;;;;;;;;;;;13.76;78.53;101050.06;5300427;32;35341;-63
2022/10/31 02:37:58;;;;;;;;;;;;;;;13.42;80.34;101044.47;5316252;32;34296;-64
2022/10/31 02:41:01;;;;;;;;;;;;;;;13.37;84.16;101057.84;5300618;33;34340;-72
2022/10/31 02:44:03;;;;;;;;;;;;;;;13.70;79.92;101058.25;5320823;32;34246;-72
2022/10/31 02:47:05;;;;;;;;;;;;;;;14.74;75.63;101056.38;5302499;32;35605;-63
2022/10/31 02:50:14;;;;;;;;;;;;;;;14.62;75.85;101057.84;5311160;33;37050;-71
2022/10/31 02:53:16;;;;;;;;;;;;;;;15.01;72.99;101046.34;5311432;32;44684;-73
2022/10/31 02:56:18;;;;;;;;;;;;;;;14.74;73.83;101061.69;5299877;32;35529;-74
2022/10/31 02:59:20;;;;;;;;;;;;;;;14.24;77.56;101066.56;5323011;32;35558;-64
2022/10/31 03:02:25;;;;;;;;;;;;;;;14.52;74.51;101058.31;5303117;32;34873;-70
2022/10/31 03:05:32;;;;;;;;;;;;;;;13.95;77.11;101070.44;5320962;33;35347;-69
2022/10/31 03:08:50;;;;;;;;;;;;;;;13.70;78.37;101078.53;5305766;32;34762;-73
2022/10/31 03:12:03;;;;;;;;;;;;;;;13.72;79.57;101074.06;5314609;32;35125;-72
2022/10/31 03:15:04;;;;;;;;;;;;;;;14.00;78.95;101079.03;5319757;32;34262;-71
2022/10/31 03:18:08;;;;;;;;;;;;;;;13.12;81.87;101076.41;5304035;32;34098;-63
2022/10/31 03:21:09;;;;;;;;;;;;;;;13.31;82.50;101079.22;5316750;32;44328;-63
2022/10/31 03:24:11;;;;;;;;;;;;;;;13.88;79.18;101085.69;5304226;33;35349;-63
2022/10/31 03:27:14;;;;;;;;;;;;;;;14.57;75.46;101066.91;5290912;33;34825;-63
2022/10/31 03:30:16;;;;;;;;;;;;;;;14.76;73.79;101075.72;5308603;33;35419;-73
2022/10/31 03:33:20;;;;;;;;;;;;;;;14.89;73.42;101076.03;5301739;32;35366;-70
2022/10/31 03:36:22;;;;;;;;;;;;;;;14.09;76.11;101086.56;5328106;32;35793;-64
2022/10/31 03:39:24;;;;;;;;;;;;;;;14.30;76.25;101080.38;5301029;33;35364;-73
2022/10/31 03:42:26;;;;;;;;;;;;;;;13.45;80.46;101092.72;5322146;32;35001;-70
2022/10/31 03:45:29;;;;;;;;;;;;;;;14.45;76.51;101081.50;5302285;33;34277;-64
2022/10/31 03:48:30;;;;;;;;;;;;;;;13.75;78.71;101087.13;5310842;32;34200;-71
2022/10/31 03:51:32;;;;;;;;;;;;;;;13.96;79.68;101093.31;5313977;32;34261;-63
2022/10/31 03:54:42;;;;;;;;;;;;;;;14.52;74.99;101080.31;5303846;32;35264;-63
2022/10/31 03:57:55;;;;;;;;;;;;;;;13.58;79.33;101090.44;5321708;32;44675;-72
2022/10/31 04:00:57;;;;;;;;;;;;;;;13.38;81.43;101093.03;5301351;33;35679;-63
2022/10/31 04:03:59;;;;;;;;;;;;;;;13.89;79.41;101092.69;5319202;32;34314;-73
2022/10/31 04:07:01;;;;;;;;;;;;;;;14.93;73.62;101082.00;5304404;33;37022;-72
2022/10/31 04:10:04;;;;;;;;;;;;;;;15.16;71.80;101085.31;5301334;32;34208;-73
2022/10/31 04:13:07;;;;;;;;;;;;;;;13.65;78.06;101091.91;5320672;33;34356;-73
2022/10/31 04:16:09;;;;;;;;;;;;;;;13.23;82.96;101089.22;5301486;32;42467;-63
2022/10/31 04:19:17;;;;;;;;;;;;;;;12.90;83.96;101084.28;5322433;32;35003;-70
2022/10/31 04:22:19;;;;;;;;;;;;;;;13.00;83.03;101088.28;5300949;32;34975;-73
2022/10/31 04:25:21;;;;;;;;;;;;;;;13.18;84.04;101091.13;5303653;32;36204;-73
2022/10/31 04:28:23;;;;;;;;;;;;;;;13.48;81.81;101099.69;5300244;32;34922;-73
2022/10/31 04:31:24;;;;;;;;;;;;;;;13.59;82.51;101104.50;5302836;32;34330;-64
2022/10/31 04:34:26;;;;;;;;;;;;;;;14.16;78.02;101105.69;5323717;32;35364;-73
2022/10/31 04:37:28;;;;;;;;;;;;;;;14.19;77.78;101108.22;5299899;32;34701;-70
2022/10/31 04:40:30;;;;;;;;;;;;;;;14.13;79.23;101111.09;5319259;32;34328;-63
2022/10/31 04:43:32;;;;;;;;;;;;;;;15.10;74.19;101101.50;5304770;32;34314;-72
2022/10/31 04:46:33;;;;;;;;;;;;;;;14.60;75.80;101095.84;5327472;32;34443;-63
2022/10/31 04:49:35;;;;;;;;;;;;;;;15.15;73.47;101098.63;5307932;33;35160;-64
2022/10/31 04:52:41;;;;;;;;;;;;;;;14.55;75.12;101108.41;5301008;32;37534;-64
2022/10/31 04:55:42;;;;;;;;;;;;;;;14.19;77.00;101108.22;5306574;33;44606;-73
2022/10/31 04:58:44;;;;;;;;;;;;;;;14.68;76.48;101103.44;5303541;32;34892;-63
2022/10/31 05:01:46;;;;;;;;;;;;;;;15.16;73.60;101108.28;5319685;32;35373;-70
2022/10/31 05:04:48;;;;;;;;;;;;;;;13.88;80.68;101111.28;5303789;32;34787;-63
2022/10/31 05:07:50;;;;;;;;;;;;;;;15.01;74.70;101112.53;5317318;32;35397;-63
2022/10/31 05:10:52;;;;;;;;;;;;;;;14.77;74.83;101111.84;5307762;32;35358;-63
2022/10/31 05:13:54;;;;;;;;;;;;;;;15.06;73.90;101099.03;5302344;33;35010;-63
2022/10/31 05:16:55;;;;;;;;;;;;;;;15.25;72.52;101109.62;5321329;32;34997;-64
2022/10/31 05:19:57;;;;;;;;;;;;;;;14.67;75.72;101105.22;5301923;32;35360;-64
2022/10/31 05:22:59;;;;;;;;;;;;;;;14.72;75.27;101121.75;5321202;32;35608;-72
2022/10/31 05:26:01;;;;;;;;;;;;;;;14.49;76.62;101129.84;5283658;33;35002;-72
2022/10/31 05:29:03;;;;;;;;;;;;;;;15.00;74.34;101107.28;5313514;32;36033;-74
2022/10/31 05:32:04;;;;;;;;;;;;;;;14.59;75.29;101105.56;5309200;33;35638;-74
2022/10/31 05:35:10;;;;;;;;;;;;;;;14.94;73.56;101126.06;5300184;32;34235;-74
2022/10/31 05:38:12;;;;;;;;;;;;;;;14.25;75.75;101118.53;5316361;32;45271;-72
2022/10/31 05:41:14;;;;;;;;;;;;;;;13.66;80.99;101137.72;5301294;33;34517;-73
2022/10/31 05:44:15;;;;;;;;;;;;;;;14.07;79.36;101123.66;5320121;32;35313;-72
2022/10/31 05:47:17;;;;;;;;;;;;;;;14.75;75.36;101129.56;5302595;33;34964;-64
2022/10/31 05:50:19;;;;;;;;;;;;;;;15.15;72.81;101125.97;5312359;32;35086;-64
2022/10/31 05:53:21;;;;;;;;;;;;;;;14.29;77.20;101131.53;5313202;33;35531;-63
2022/10/31 05:56:23;;;;;;;;;;;;;;;13.59;80.91;101144.12;5300475;32;34821;-70
2022/10/31 05:59:25;;;;;;;;;;;;;;;14.45;77.36;101131.75;5321095;32;35286;-64
2022/10/31 06:02:27;;;;;;;;;;;;;;;15.00;72.86;101121.34;5302363;33;34802;-72
2022/10/31 06:05:29;;;;;;;;;;;;;;;15.20;72.10;101123.12;5319042;33;34140;-66
2022/10/31 06:08:31;;;;;;;;;;;;;;;13.81;77.94;101137.94;5301784;32;34627;-73
2022/10/31 06:11:32;;;;;;;;;;;;;;;13.88;79.02;101138.56;5309738;32;34885;-63
2022/10/31 06:14:34;;;;;;;;;;;;;;;14.38;78.08;101135.56;5311028;33;34486;-73
2022/10/31 06:17:36;;;;;;;;;;;;;;;14.80;75.53;101129.34;5291734;32;34129;-64
2022/10/31 06:20:38;;;;;;;;;;;;;;;14.56;76.37;101121.59;5318940;32;35669;-64
2022/10/31 06:23:40;;;;;;;;;;;;;;;15.16;72.21;101106.50;5301933;33;44625;-72
2022/10/31 06:26:42;;;;;;;;;;;;;;;14.38;75.62;101138.22;5294078;32;35313;-73
2022/10/31 06:29:45;;;;;;;;;;;;;;;14.65;75.41;101130.03;5303606;32;34923;-73
2022/10/31 06:32:47;;;;;;;;;;;;;;;15.28;71.94;101130.69;5311864;32;35215;-73
2022/10/31 06:35:49;;;;;;;;;;;;;;;14.85;73.80;101130.00;5311235;32;35874;-73
2022/10/31 06:38:51;;;;;;;;;;;;;;;14.98;73.33;101138.25;5299574;32;35479;-63
2022/10/31 06:41:52;;;;;;;;;;;;;;;14.38;75.65;101154.09;5321356;32;34679;-73
2022/10/31 06:44:54;;;;;;;;;;;;;;;14.79;73.88;101148.81;5304782;32;34870;-74
2022/10/31 06:47:56;;;;;;;;;;;;;;;14.11;77.42;101163.19;5319680;32;34303;-74
2022/10/31 06:51:18;;;;;;;;;;;;;;;14.71;74.25;101159.72;5299861;32;44931;-63
2022/10/31 06:54:21;;;;;;;;;;;;;;;14.16;76.05;101163.84;5305074;32;34354;-70
2022/10/31 06:57:23;;;;;;;;;;;;;;;13.64;79.88;101172.09;5322011;32;35726;-73
2022/10/31 07:00:25;;;;;;;;;;;;;;;14.95;74.72;101165.72;5301979;33;35387;-73
2022/10/31 07:03:27;;;;;;;;;;;;;;;14.56;74.22;101178.94;5321856;32;34170;-74
2022/10/31 07:06:29;;;;;;;;;;;;;;;14.00;78.13;101167.12;5303107;32;35002;-63
2022/10/31 07:09:31;;;;;;;;;;;;;;;14.09;77.45;101177.31;5319785;32;34449;-73
2022/10/31 07:12:32;;;;;;;;;;;;;;;14.25;76.25;101164.31;5307876;32;34652;-63
2022/10/31 07:15:35;;;;;;;;;;;;;;;14.95;72.98;101149.84;5288380;33;35486;-63
2022/10/31 07:18:37;;;;;;;;;;;;;;;15.14;71.87;101161.31;5322238;32;35369;-63
2022/10/31 07:21:39;;;;;;;;;;;;;;;15.63;70.45;101163.50;5311843;32;45409;-65
2022/10/31 07:24:40;;;;;;;;;;;;;;;15.69;69.83;101163.19;5313557;32;34474;-74
2022/10/31 07:27:42;;;;;;;;;;;;;;;15.53;69.66;101167.50;5288882;32;35366;-64
2022/10/31 07:30:48;;;;;;;;;;;;;;;15.54;69.41;101164.75;5318569;33;35578;-73
2022/10/31 07:33:50;;;;;;;;;;;;;;;15.38;70.51;101169.91;5307904;32;35264;-63
2022/10/31 07:36:52;;;;;;;;;;;;;;;15.66;69.38;101158.91;5300989;32;35402;-65
2022/10/31 07:39:54;;;;;;;;;;;;;;;15.30;71.32;101171.19;5319367;32;34903;-64
2022/10/31 07:42:57;;;;;;;;;;;;;;;15.06;72.87;101175.81;5302766;32;35345;-73
2022/10/31 07:45:59;;;;;;;;;;;;;;;14.35;76.25;101178.00;5318063;33;35518;-65
2022/10/31 07:49:01;;;;;;;;;;;;;;;14.57;75.70;101192.09;5304321;32;35402;-73
2022/10/31 07:52:03;;;;;;;;;;;;;;;15.42;71.24;101186.53;5315839;32;34934;-64
2022/10/31 07:55:05;;;;;;;;;;;;;;;14.65;74.25;101182.97;5305073;32;34516;-73
2022/10/31 07:58:08;;;;;;;;;;;;;;;14.30;76.68;101183.50;5301124;32;34108;-73
2022/10/31 08:01:09;;;;;;;;;;;;;;;14.59;75.54;101174.34;5317699;33;47174;-63
2022/10/31 08:04:14;;;;;;;;;;;;;;;15.59;70.96;101169.84;5304641;32;34353;-63
2022/10/31 08:07:16;;;;;;;;;;;;;;;15.69;70.18;101169.34;5320500;32;34646;-74
2022/10/31 08:10:18;;;;;;;;;;;;;;;14.91;73.89;101182.66;5300795;33;35676;-74
2022/10/31 08:13:20;;;;;;;;;;;;;;;15.25;73.04;101178.50;5300295;33;34994;-73
2022/10/31 08:16:22;;;;;;;;;;;;;;;15.67;71.01;101178.31;5308495;33;35519;-74
2022/10/31 08:19:23;;;;;;;;;;;;;;;15.31;71.81;101184.38;5303851;32;34709;-74
2022/10/31 08:22:25;;;;;;;;;;;;;;;14.42;76.33;101187.41;5320895;32;34319;-73
2022/10/31 08:25:28;;;;;;;;;;;;;;;15.70;70.64;101186.09;5285973;32;35303;-64
2022/10/31 08:28:36;;;;;;;;;;;;;;;15.54;70.13;101183.31;5312736;32;35260;-63
2022/10/31 08:31:37;;;;;;;;;;;;;;;15.24;71.46;101182.06;5304739;32;36519;-65
2022/10/31 08:34:43;;;;;;;;;;;;;;;14.79;73.63;101186.72;5309202;32;47100;-73
2022/10/31 08:37:45;;;;;;;;;;;;;;;13.91;78.46;101186.00;5311509;32;34606;-65
2022/10/31 08:40:48;;;;;;;;;;;;;;;14.31;77.41;101185.22;5300624;32;35680;-65
2022/10/31 08:43:50;;;;;;;;;;;;;;;15.29;73.58;101180.94;5320979;32;34759;-65
2022/10/31 08:46:51;;;;;;;;;;;;;;;15.30;72.87;101177.34;5303491;32;35370;-64
2022/10/31 08:49:53;;;;;;;;;;;;;;;15.16;72.66;101180.62;5317809;33;35259;-64
2022/10/31 08:53:22;;;;;;;;;;;;;;;15.64;70.89;101176.66;5304898;32;34751;-65
2022/10/31 08:56:24;;;;;;;;;;;;;;;15.80;70.28;101181.25;5297220;32;34997;-63
2022/10/31 08:59:26;;;;;;;;;;;;;;;15.62;70.58;101188.28;5320845;33;35051;-63
2022/10/31 09:02:27;;;;;;;;;;;;;;;14.90;74.25;101186.25;5303946;32;34343;-73
2022/10/31 09:05:29;;;;;;;;;;;;;;;14.84;75.14;101202.41;5316243;33;34577;-65
2022/10/31 09:08:32;;;;;;;;;;;;;;;14.59;77.01;101200.81;5304935;32;34482;-73
2022/10/31 09:11:33;;;;;;;;;;;;;;;14.05;79.13;101203.94;5324404;32;34306;-74
2022/10/31 09:15:51;;;;;;;;;;;;;;;14.92;76.62;101196.75;5448361;32;901106;-64
2022/10/31 09:18:53;;;;;;;;;;;;;;;15.76;71.71;101195.56;5447786;32;33849;-74
2022/10/31 09:21:55;;;;;;;;;;;;;;;15.46;72.33;101196.06;5469306;32;34713;-64
2022/10/31 09:24:56;;;;;;;;;;;;;;;16.11;69.84;101199.16;5432603;32;36318;-65
2022/10/31 09:28:02;;;;;;;;;;;;;;;14.89;74.00;101203.06;5422849;32;34759;-65
2022/10/31 09:31:05;;;;;;;;;;;;;;;14.88;74.83;101204.84;5462828;32;34238;-72
2022/10/31 09:34:06;;;;;;;;;;;;;;;15.25;73.88;101200.53;5446113;32;34130;-64
2022/10/31 09:37:08;;;;;;;;;;;;;;;15.73;71.36;101201.88;5460137;32;34506;-64
2022/10/31 09:40:10;;;;;;;;;;;;;;;15.84;70.89;101199.59;5445840;32;45703;-73
2022/10/31 09:43:15;;;;;;;;;;;;;;;14.80;75.13;101214.03;5463723;32;35063;-74
2022/10/31 09:46:29;;;;;;;;;;;;;;;14.03;79.68;101209.28;5449968;32;34401;-64
2022/10/31 09:49:30;;;;;;;;;;;;;;;15.97;70.85;101205.12;5448282;32;35296;-73
2022/10/31 09:52:33;;;;;;;;;;;;;;;15.41;72.45;101206.00;5464475;32;34169;-64
2022/10/31 09:55:42;;;;;;;;;;;;;;;15.87;69.89;101204.72;5449332;32;35130;-64
2022/10/31 09:58:53;;;;;;;;;;;;;;;15.35;72.29;101204.50;5432807;32;44764;-72
2022/10/31 10:01:59;;;;;;;;;;;;;;;15.84;70.52;101207.53;5443674;32;35043;-64
2022/10/31 10:05:04;;;;;;;;;;;;;;;14.91;74.80;101206.50;5426860;32;34366;-75
2022/10/31 10:08:14;;;;;;;;;;;;;;;15.32;73.89;101195.81;5449250;32;35375;-64
2022/10/31 10:11:18;;;;;;;;;;;;;;;15.56;72.52;101189.37;5429435;32;44558;-74
2022/10/31 10:14:20;;;;;;;;;;;;;;;15.28;72.48;101194.25;5455676;32;35729;-64
2022/10/31 10:17:39;;;;;;;;;;;;;;;15.38;73.11;101195.53;5446011;32;35114;-64
2022/10/31 10:20:41;;;;;;;;;;;;;;;14.96;73.98;101198.34;5450473;32;47246;-64
2022/10/31 10:24:02;;;;;;;;;;;;;;;15.75;71.11;101186.75;5443677;32;35483;-73
2022/10/31 10:27:13;;;;;;;;;;;;;;;15.95;69.76;101193.75;5409767;32;35508;-64
2022/10/31 10:30:20;;;;;;;;;;;;;;;15.24;73.61;101193.53;5446555;32;34387;-64
2022/10/31 10:33:24;;;;;;;;;;;;;;;14.28;76.99;101197.69;5435038;32;35399;-64
2022/10/31 10:36:35;;;;;;;;;;;;;;;14.67;76.06;101191.69;5428027;32;34815;-64
2022/10/31 10:39:38;;;;;;;;;;;;;;;14.46;75.95;101193.44;5443699;32;37060;-64
2022/10/31 10:49:33;;;;;;;;;;;;;;;16.17;67.89;101175.84;5436172;32;35497;-74
2022/10/31 10:52:46;;;;;;;;;;;;;;;16.31;67.25;101176.97;5424163;32;34052;-65
2022/10/31 10:55:53;;;;;;;;;;;;;;;16.60;66.16;101180.75;5441203;32;35544;-70
2022/10/31 10:58:55;;;;;;;;;;;;;;;16.48;66.15;101167.19;5414997;32;34593;-64
2022/10/31 11:01:57;;;;;;;;;;;;;;;16.40;66.99;101182.63;5414784;32;34271;-71
2022/10/31 11:04:59;;;;;;;;;;;;;;;14.67;73.88;101189.03;5427089;32;34386;-72
2022/10/31 11:08:02;;;;;;;;;;;;;;;14.48;75.39;101187.16;5419512;32;34739;-74
2022/10/31 11:11:10;;;;;;;;;;;;;;;14.56;75.77;101174.50;5431395;32;34624;-64
2022/10/31 11:14:12;;;;;;;;;;;;;;;14.81;74.97;101179.59;5406316;32;45422;-64
2022/10/31 11:17:26;;;;;;;;;;;;;;;15.39;70.78;101157.50;5433923;32;35129;-64
2022/10/31 11:20:31;;;;;;;;;;;;;;;14.85;73.32;101177.66;5413911;32;34834;-64
2022/10/31 11:23:33;;;;;;;;;;;;;;;14.94;73.13;101169.31;5435787;32;34610;-74
2022/10/31 11:26:37;;;;;;;;;;;;;;;14.81;73.77;101168.13;5408128;32;34113;-64
2022/10/31 11:29:39;;;;;;;;;;;;;;;15.23;71.58;101167.97;5434760;32;45135;-64
2022/10/31 11:32:47;;;;;;;;;;;;;;;15.77;70.72;101155.72;5444654;32;34566;-74
2022/10/31 11:35:49;;;;;;;;;;;;;;;15.90;68.43;101156.84;5411743;32;35636;-74
2022/10/31 11:38:57;;;;;;;;;;;;;;;16.43;66.45;101152.47;5442456;32;35100;-65
2022/10/31 11:42:00;;;;;;;;;;;;;;;15.97;67.30;101147.69;5405340;32;34911;-73
2022/10/31 11:45:19;;;;;;;;;;;;;;;15.31;70.76;101146.44;5414667;32;35665;-74
2022/10/31 11:48:22;;;;;;;;;;;;;;;16.31;67.56;101145.13;5404084;32;34922;-65
2022/10/31 11:51:28;;;;;;;;;;;;;;;16.49;65.69;101144.19;5428055;32;34391;-65
2022/10/31 11:54:32;;;;;;;;;;;;;;;16.91;63.74;101142.88;5419105;32;34139;-74
2022/10/31 11:57:48;;;;;;;;;;;;;;;15.52;68.87;101160.44;5399632;32;34235;-74
2022/10/31 12:00:54;;;;;;;;;;;;;;;15.82;69.27;101151.06;5414134;32;34753;-73
2022/10/31 12:04:11;;;;;;;;;;;;;;;15.67;68.61;101152.69;5431714;32;35179;-64
2022/10/31 12:07:13;;;;;;;;;;;;;;;16.03;68.44;101151.78;5401321;32;45279;-73
2022/10/31 12:10:15;;;;;;;;;;;;;;;15.25;70.87;101157.31;5419205;32;35133;-74
2022/10/31 12:13:32;;;;;;;;;;;;;;;15.80;69.79;101150.28;5405756;32;34661;-64
2022/10/31 12:16:39;;;;;;;;;;;;;;;15.39;70.31;101153.09;5440906;32;34261;-74
2022/10/31 12:19:41;;;;;;;;;;;;;;;15.58;69.95;101150.41;5433602;32;44797;-73
2022/10/31 12:22:55;;;;;;;;;;;;;;;16.07;68.35;101150.72;5430130;32;34630;-74
2022/10/31 12:26:17;;;;;;;;;;;;;;;16.25;66.43;101149.81;5427991;32;35224;-64
2022/10/31 12:29:19;;;;;;;;;;;;;;;16.02;67.96;101152.72;5420434;32;34943;-64
2022/10/31 12:32:42;;;;;;;;;;;;;;;14.99;72.34;101161.16;5447795;32;34775;-73
2022/10/31 12:36:02;;;;;;;;;;;;;;;14.66;73.89;101158.22;5423412;32;47313;-74
2022/10/31 12:39:10;;;;;;;;;;;;;;;15.54;70.52;101150.66;5431033;32;34338;-64
2022/10/31 12:42:22;;;;;;;;;;;;;;;16.10;68.46;101149.69;5448567;32;44533;-64
2022/10/31 12:45:36;;;;;;;;;;;;;;;16.24;66.80;101145.44;5421424;32;34798;-74
2022/10/31 12:49:00;;;;;;;;;;;;;;;15.15;71.94;101147.16;5446966;32;34953;-73
2022/10/31 12:52:05;;;;;;;;;;;;;;;15.06;72.30;101139.63;5426105;32;35291;-64
2022/10/31 12:55:25;;;;;;;;;;;;;;;14.88;72.66;101146.63;5435381;32;37266;-64
2022/10/31 12:58:38;;;;;;;;;;;;;;;14.63;72.47;101140.69;5446604;32;34936;-74
2022/10/31 13:01:41;;;;;;;;;;;;;;;16.20;67.10;101145.66;5429493;32;45164;-74
2022/10/31 13:04:43;;;;;;;;;;;;;;;15.44;69.59;101147.56;5423932;32;35203;-74
2022/10/31 13:07:51;;;;;;;;;;;;;;;15.59;69.44;101141.56;5420941;32;35001;-65
2022/10/31 13:11:02;;;;;;;;;;;;;;;14.98;71.36;101144.41;5422359;32;35148;-71
2022/10/31 13:14:36;;;;;;;;;;;;;;;16.12;67.52;101140.75;5443828;32;35065;-74
2022/10/31 13:17:39;;;;;;;;;;;;;;;15.99;67.90;101144.94;5401316;32;34014;-64
2022/10/31 13:20:42;;;;;;;;;;;;;;;15.53;67.72;101143.66;5429172;32;47971;-75
2022/10/31 13:23:44;;;;;;;;;;;;;;;15.46;69.69;101132.47;5419544;32;36505;-64
2022/10/31 13:26:53;;;;;;;;;;;;;;;14.70;71.87;101138.63;5392933;32;34434;-64
2022/10/31 13:29:58;;;;;;;;;;;;;;;15.44;70.67;101131.69;5429075;32;34923;-64
2022/10/31 13:33:14;;;;;;;;;;;;;;;15.92;68.18;101130.28;5433771;32;34618;-73
2022/10/31 13:36:15;;;;;;;;;;;;;;;16.04;67.55;101134.97;5407928;32;45208;-73
2022/10/31 13:39:27;;;;;;;;;;;;;;;16.15;66.44;101132.63;5412807;32;35503;-74
2022/10/31 13:42:32;;;;;;;;;;;;;;;15.59;69.10;101135.41;5398264;32;34867;-73
2022/10/31 13:45:34;;;;;;;;;;;;;;;15.72;68.92;101135.72;5425828;32;34847;-64
2022/10/31 13:48:38;;;;;;;;;;;;;;;14.83;72.67;101139.81;5431499;32;34128;-64
2022/10/31 13:51:40;;;;;;;;;;;;;;;15.68;68.90;101134.97;5437370;32;44754;-73
2022/10/31 13:54:42;;;;;;;;;;;;;;;16.24;66.15;101129.53;5425173;32;35942;-73
2022/10/31 13:57:44;;;;;;;;;;;;;;;15.97;67.03;101131.78;5445665;32;35394;-64
2022/10/31 14:00:46;;;;;;;;;;;;;;;15.42;69.16;101133.56;5410693;32;34889;-64
2022/10/31 14:03:55;;;;;;;;;;;;;;;15.25;70.83;101133.47;5416524;32;35168;-73
2022/10/31 14:07:17;;;;;;;;;;;;;;;15.00;71.84;101133.75;5439021;32;47061;-64
2022/10/31 14:10:28;;;;;;;;;;;;;;;13.78;77.69;101142.47;5432991;32;35170;-73
2022/10/31 14:13:30;;;;;;;;;;;;;;;14.58;75.38;101138.25;5419929;32;34670;-74
2022/10/31 14:16:33;;;;;;;;;;;;;;;15.00;71.66;101133.75;5432510;32;34763;-64
2022/10/31 14:19:35;;;;;;;;;;;;;;;14.38;74.22;101137.38;5424523;32;33992;-64
2022/10/31 14:22:37;;;;;;;;;;;;;;;14.63;74.65;101130.12;5441247;32;34373;-64
2022/10/31 14:25:43;;;;;;;;;;;;;;;14.92;72.80;101134.09;5391274;32;47226;-64
2022/10/31 14:28:45;;;;;;;;;;;;;;;14.58;72.73;101137.38;5407971;32;35639;-63
2022/10/31 14:31:54;;;;;;;;;;;;;;;14.26;76.42;101133.47;5428554;32;34643;-64
2022/10/31 14:34:56;;;;;;;;;;;;;;;15.68;69.71;101119.09;5411562;32;35262;-64
2022/10/31 14:38:01;;;;;;;;;;;;;;;15.07;71.45;101127.22;5402325;32;35426;-64
2022/10/31 14:41:06;;;;;;;;;;;;;;;15.61;70.10;101129.09;5397291;32;35044;-74
2022/10/31 14:44:08;;;;;;;;;;;;;;;15.42;71.09;101123.81;5412929;32;34853;-73
2022/10/31 14:47:17;;;;;;;;;;;;;;;14.54;74.38;101120.78;5431164;32;45541;-65
2022/10/31 14:50:18;;;;;;;;;;;;;;;15.34;71.94;101125.97;5426577;32;34901;-71
2022/10/31 14:53:21;;;;;;;;;;;;;;;14.68;73.52;101130.75;5436116;32;35389;-65
2022/10/31 14:56:27;;;;;;;;;;;;;;;14.61;74.80;101127.50;5443050;32;34263;-65
2022/10/31 14:59:30;;;;;;;;;;;;;;;14.97;72.43;101139.19;5434782;32;34456;-74
2022/10/31 15:02:52;;;;;;;;;;;;;;;14.69;73.94;101132.50;5413567;32;34458;-64
2022/10/31 15:05:55;;;;;;;;;;;;;;;14.71;74.28;101130.62;5434349;32;34214;-73
2022/10/31 15:08:57;;;;;;;;;;;;;;;14.82;72.45;101132.81;5424044;32;34048;-64
2022/10/31 15:12:00;;;;;;;;;;;;;;;15.09;71.51;101123.59;5419932;32;35151;-64
2022/10/31 15:15:19;;;;;;;;;;;;;;;14.51;73.81;101131.50;5429739;32;34765;-74
2022/10/31 15:18:25;;;;;;;;;;;;;;;14.80;73.74;101132.00;5434008;32;35444;-64
2022/10/31 15:21:30;;;;;;;;;;;;;;;15.72;68.50;101122.47;5425364;32;35347;-64
2022/10/31 15:24:36;;;;;;;;;;;;;;;15.32;70.18;101126.94;5418207;32;33915;-73
2022/10/31 15:27:39;;;;;;;;;;;;;;;14.09;76.41;101132.37;5418325;32;34240;-73
2022/10/31 15:30:49;;;;;;;;;;;;;;;15.08;70.92;101135.13;5419523;32;44743;-73
2022/10/31 15:33:50;;;;;;;;;;;;;;;15.20;69.58;101132.81;5436478;32;35151;-74
2022/10/31 15:36:52;;;;;;;;;;;;;;;15.25;70.20;101122.88;5441015;32;34967;-65
2022/10/31 15:39:54;;;;;;;;;;;;;;;14.78;73.10;101125.91;5420480;32;35813;-65
2022/10/31 15:42:57;;;;;;;;;;;;;;;15.01;72.59;101123.09;5442031;32;34709;-73
2022/10/31 15:45:59;;;;;;;;;;;;;;;14.76;72.23;101135.72;5434788;32;34880;-73
2022/10/31 15:49:01;;;;;;;;;;;;;;;14.12;76.83;101141.13;5447975;32;35317;-65
2022/10/31 15:52:12;;;;;;;;;;;;;;;15.10;72.06;101133.25;5436813;32;34361;-65
2022/10/31 15:55:25;;;;;;;;;;;;;;;15.37;70.29;101144.34;5422127;32;43892;-64